This is the latest recevied weather packets stored in our database for station/object KU4DD. If no packets are shown the sender has not sent any weather packets the latest 10 day(s).
| Time | Temp. | Humidity | Pressure | Rain* | Wind** | Luminosity | Snow |
|---|---|---|---|---|---|---|---|
| 1787798859 | 25° C | 82% | 1016.9 hPa | 0 mm | - | 0 W/m² | - |
| 1787797928 | 25° C | 81% | 1016.9 hPa | 0 mm | - | 0 W/m² | - |
| 1787797298 | 25° C | 81% | 1016.9 hPa | 0 mm | - | 0 W/m² | - |
| 1787796973 | 25° C | 81% | 1016.9 hPa | 0 mm | - | 0 W/m² | - |
| 1787794201 | 24.44° C | 82% | 1016.6 hPa | 0 mm | - | 0 W/m² | - |
| 1787792383 | 25.56° C | 77% | 1016.6 hPa | 0 mm | - | 0 W/m² | - |
| 1787791451 | 26.67° C | 73% | 1016.6 hPa | 0 mm | - | 0 W/m² | - |
| 1787789847 | 27.22° C | 69% | 1015.9 hPa | 0 mm | - | 0 W/m² | - |
| 1787786759 | 28.89° C | 62% | 1015.6 hPa | 0 mm | - | 25 W/m² | - |
| 1787782427 | 30.56° C | 54% | 1016.3 hPa | 0 mm | - | 116 W/m² | - |
| 1787782176 | 30.56° C | 55% | 1016.3 hPa | 0 mm | - | 109 W/m² | - |
| 1787780929 | 31.67° C | 47% | 1015.9 hPa | 0 mm | - | 76 W/m² | - |
| 1787780097 | 32.22° C | 46% | 1016.3 hPa | 0 mm | - | 197 W/m² | - |
| 1787778619 | 32.22° C | 46% | 1016.3 hPa | 0 mm | - | 427 W/m² | - |
| 1787778296 | 32.22° C | 46% | 1016.3 hPa | 0 mm | - | 369 W/m² | - |
| 1787777984 | 32.22° C | 45% | 1016.3 hPa | 0 mm | - | 482 W/m² | - |
| 1787774746 | 32.22° C | 47% | 1016.6 hPa | 0 mm | - | 573 W/m² | - |
| 1787774100 | 32.22° C | 48% | 1016.6 hPa | 0 mm | - | 772 W/m² | - |
| 1787749502 | 25° C | 80% | 1019 hPa | 0 mm | - | 387 W/m² | - |
| 1787748562 | 23.89° C | 83% | 1019.3 hPa | 0 mm | - | 334 W/m² | - |
| 1787747208 | 23.33° C | 85% | 1019 hPa | 0 mm | - | 258 W/m² | - |
| 1787746281 | 22.78° C | 85% | 1019 hPa | 0 mm | - | 206 W/m² | - |
| 1787700046 | 28.33° C | 60% | 1016.9 hPa | 0 mm | - | 26 W/m² | - |
| 1787698799 | 29.44° C | 54% | 1016.9 hPa | 0 mm | - | 60 W/m² | - |
| 1787696756 | 30.56° C | 50% | 1016.9 hPa | 0 mm | - | 76 W/m² | - |
* Rain latest hour (hover to see other rain measurements)
** Current wind speed in m/s (hover to see current wind gust speed)